Time;durP1;ratioP1;P1;durP2;ratioP2;P2;SDS_P1;SDS_P2;PMS_P1;PMS_P2;Temp;Humidity;BMP_temperature;BMP_pressure;BME280_temperature;BME280_humidity;BME280_pressure;Samples;Min_cycle;Max_cycle;Signal;HPM_P1;HPM_P2
2021/10/20 00:01:47;;;;;;;6.25;3.65;;;16.70;96.70;;;;;;5045406;28;20025;-85
2021/10/20 00:04:12;;;;;;;6.20;4.15;;;16.60;96.60;;;;;;5005524;28;20465;-86
2021/10/20 00:06:38;;;;;;;6.40;3.90;;;16.60;96.60;;;;;;5044591;28;20029;-86
2021/10/20 00:09:04;;;;;;;6.07;3.55;;;16.60;96.60;;;;;;5033191;28;20033;-85
2021/10/20 00:11:30;;;;;;;4.85;3.40;;;16.60;96.50;;;;;;5036679;28;20014;-86
2021/10/20 00:13:56;;;;;;;5.32;3.45;;;16.60;96.60;;;;;;5019858;28;20052;-87
2021/10/20 00:16:23;;;;;;;5.63;3.42;;;16.50;96.60;;;;;;5024874;28;20466;-86
2021/10/20 00:18:49;;;;;;;7.30;4.07;;;16.60;96.70;;;;;;5056626;28;20056;-85
2021/10/20 00:21:19;;;;;;;4.93;3.50;;;16.50;96.40;;;;;;5041941;28;20021;-86
2021/10/20 00:23:45;;;;;;;4.93;3.03;;;16.50;96.50;;;;;;5047698;28;20017;-86
2021/10/20 00:26:11;;;;;;;5.43;3.30;;;16.50;96.40;;;;;;5051270;28;20029;-86
2021/10/20 00:28:36;;;;;;;7.72;4.20;;;16.50;96.40;;;;;;5045123;28;20033;-86
2021/10/20 00:31:02;;;;;;;5.65;3.72;;;16.50;96.30;;;;;;5032407;28;20402;-86
2021/10/20 00:33:28;;;;;;;9.50;3.67;;;16.50;96.30;;;;;;5045981;28;20049;-86
2021/10/20 00:35:53;;;;;;;5.80;3.47;;;16.50;96.20;;;;;;5040998;28;20088;-85
2021/10/20 00:38:19;;;;;;;5.57;3.20;;;16.50;96.20;;;;;;5008302;28;20091;-85
2021/10/20 00:40:44;;;;;;;6.00;3.40;;;16.50;96.10;;;;;;5032534;28;20456;-86
2021/10/20 00:43:10;;;;;;;6.10;3.40;;;16.50;96.20;;;;;;5045310;28;20462;-86
2021/10/20 00:45:36;;;;;;;5.18;3.60;;;16.50;96.10;;;;;;5038322;28;20478;-86
2021/10/20 00:48:01;;;;;;;7.82;3.30;;;16.50;96.10;;;;;;5043754;28;20078;-86
2021/10/20 00:50:27;;;;;;;9.07;3.40;;;16.50;96.00;;;;;;5043840;28;20025;-86
2021/10/20 00:52:53;;;;;;;6.75;3.42;;;16.50;95.90;;;;;;5033140;28;20026;-86
2021/10/20 00:55:19;;;;;;;5.07;3.13;;;16.50;95.80;;;;;;5029759;28;20060;-86
2021/10/20 00:57:46;;;;;;;4.93;3.15;;;16.50;95.80;;;;;;5041693;28;20025;-86
2021/10/20 01:00:13;;;;;;;5.85;3.25;;;16.50;95.70;;;;;;5047405;28;20103;-86
2021/10/20 01:02:40;;;;;;;6.03;2.85;;;16.50;95.70;;;;;;5035728;28;20022;-86
2021/10/20 01:05:08;;;;;;;6.55;3.40;;;16.50;95.60;;;;;;5035881;28;20082;-86
2021/10/20 01:07:35;;;;;;;6.72;3.42;;;16.60;95.60;;;;;;5035682;28;20076;-86
2021/10/20 01:10:01;;;;;;;5.55;3.08;;;16.60;95.50;;;;;;5021507;28;20034;-86
2021/10/20 01:12:28;;;;;;;5.78;3.17;;;16.60;95.50;;;;;;5047432;28;20025;-86
2021/10/20 01:14:54;;;;;;;4.25;2.88;;;16.60;95.40;;;;;;5050804;28;20017;-86
2021/10/20 01:17:20;;;;;;;7.55;3.33;;;16.60;95.30;;;;;;5015941;28;20382;-87
2021/10/20 01:19:46;;;;;;;6.18;3.00;;;16.60;95.40;;;;;;5049168;28;20489;-85
2021/10/20 01:22:13;;;;;;;8.10;3.17;;;16.60;95.30;;;;;;5034018;28;20017;-86
2021/10/20 01:24:39;;;;;;;6.57;3.05;;;16.60;95.30;;;;;;5018623;28;20080;-86
2021/10/20 01:27:06;;;;;;;6.15;3.17;;;16.60;95.30;;;;;;5036218;28;20026;-85
2021/10/20 01:29:32;;;;;;;6.43;3.30;;;16.60;95.00;;;;;;5034967;28;20030;-86
2021/10/20 01:32:00;;;;;;;5.93;3.20;;;16.60;95.10;;;;;;5019113;28;20032;-86
2021/10/20 01:34:26;;;;;;;4.18;3.22;;;16.60;95.10;;;;;;5049836;28;20025;-86
2021/10/20 01:36:52;;;;;;;5.68;3.50;;;16.60;95.00;;;;;;5036269;28;20478;-86
2021/10/20 01:39:20;;;;;;;6.10;3.08;;;16.70;94.80;;;;;;5034977;28;20076;-85
2021/10/20 01:41:47;;;;;;;5.07;3.40;;;16.70;94.80;;;;;;5055652;28;20075;-86
2021/10/20 01:44:13;;;;;;;5.32;3.20;;;16.70;94.70;;;;;;5062835;28;20038;-89
2021/10/20 01:46:40;;;;;;;5.43;2.97;;;16.70;94.70;;;;;;5063741;28;20013;-86
2021/10/20 01:49:05;;;;;;;7.03;3.42;;;16.70;94.80;;;;;;5063960;28;20020;-86
2021/10/20 01:51:31;;;;;;;6.15;2.95;;;16.70;94.70;;;;;;5048208;28;20018;-86
2021/10/20 01:53:57;;;;;;;6.45;3.05;;;16.70;94.70;;;;;;5071625;28;20032;-86
2021/10/20 01:56:23;;;;;;;6.35;3.33;;;16.70;94.60;;;;;;5061262;28;20021;-88
2021/10/20 01:58:48;;;;;;;8.68;3.28;;;16.70;94.40;;;;;;5067524;28;20052;-85
2021/10/20 02:01:14;;;;;;;7.43;3.60;;;16.80;94.50;;;;;;5049592;28;20025;-86
2021/10/20 02:03:41;;;;;;;5.45;3.42;;;16.70;94.60;;;;;;5011253;28;20056;-86
2021/10/20 02:06:10;;;;;;;4.82;3.28;;;16.80;94.50;;;;;;5054935;28;20120;-86
2021/10/20 02:08:36;;;;;;;8.07;3.22;;;16.80;94.50;;;;;;5054504;28;20471;-85
2021/10/20 02:11:02;;;;;;;7.80;3.13;;;16.80;94.40;;;;;;5054683;28;20148;-86
2021/10/20 02:13:28;;;;;;;4.70;3.30;;;16.80;94.50;;;;;;5051737;28;20063;-85
2021/10/20 02:15:53;;;;;;;5.05;2.88;;;16.80;94.40;;;;;;5034505;28;20051;-86
2021/10/20 02:18:19;;;;;;;5.07;3.28;;;16.80;94.40;;;;;;5047959;28;20029;-86
2021/10/20 02:20:45;;;;;;;6.10;3.15;;;16.80;94.30;;;;;;5048903;28;20030;-86
2021/10/20 02:23:12;;;;;;;8.48;2.80;;;16.80;94.30;;;;;;5038376;28;20124;-85
2021/10/20 02:25:37;;;;;;;5.75;3.30;;;16.80;94.10;;;;;;5036912;28;20021;-85
2021/10/20 02:28:03;;;;;;;5.45;3.20;;;16.80;94.20;;;;;;5043722;28;20052;-86
2021/10/20 02:30:29;;;;;;;4.20;3.03;;;16.80;94.20;;;;;;5017295;28;20032;-86
2021/10/20 02:32:55;;;;;;;5.50;3.08;;;16.80;94.20;;;;;;5042840;28;20021;-85
2021/10/20 02:35:21;;;;;;;4.90;2.88;;;16.80;94.40;;;;;;5039272;28;20048;-86
2021/10/20 02:37:47;;;;;;;5.50;2.90;;;16.80;94.00;;;;;;5053858;28;20086;-85
2021/10/20 02:40:13;;;;;;;5.93;3.25;;;16.80;94.10;;;;;;5040303;28;20044;-86
2021/10/20 02:42:40;;;;;;;6.05;3.25;;;16.80;94.10;;;;;;5051043;28;20024;-86
2021/10/20 02:45:09;;;;;;;4.35;3.00;;;16.80;94.10;;;;;;5036839;28;20033;-86
2021/10/20 02:47:35;;;;;;;5.90;3.33;;;16.80;94.20;;;;;;5054683;28;20023;-86
2021/10/20 02:50:00;;;;;;;6.22;3.72;;;16.70;94.10;;;;;;5046927;28;20029;-86
2021/10/20 02:52:26;;;;;;;7.70;3.42;;;16.70;94.20;;;;;;5072247;28;20380;-86
2021/10/20 02:54:52;;;;;;;5.30;2.97;;;16.80;94.30;;;;;;5020566;28;20029;-85
2021/10/20 02:57:17;;;;;;;5.38;3.28;;;16.70;94.20;;;;;;5031913;28;20431;-87
2021/10/20 02:59:45;;;;;;;8.60;3.30;;;16.70;94.30;;;;;;5038534;28;20416;-86
2021/10/20 03:02:10;;;;;;;6.90;3.42;;;16.70;94.30;;;;;;5020984;28;20079;-85
2021/10/20 03:04:36;;;;;;;5.45;3.25;;;16.70;94.30;;;;;;5036508;28;20037;-86
2021/10/20 03:07:02;;;;;;;5.82;2.85;;;16.70;94.30;;;;;;5036324;28;20037;-86
2021/10/20 03:09:27;;;;;;;6.35;3.63;;;16.70;94.60;;;;;;5000371;28;20037;-86
2021/10/20 03:11:53;;;;;;;4.90;3.03;;;16.70;94.30;;;;;;5039736;28;20473;-86
2021/10/20 03:14:18;;;;;;;6.68;3.53;;;16.70;94.30;;;;;;5074316;28;20077;-85
2021/10/20 03:16:44;;;;;;;5.43;3.45;;;16.70;94.40;;;;;;5018040;28;20021;-85
2021/10/20 03:19:10;;;;;;;4.70;3.20;;;16.60;94.30;;;;;;5029675;28;20098;-85
2021/10/20 03:21:35;;;;;;;5.53;3.45;;;16.70;94.50;;;;;;5035645;28;20035;-85
2021/10/20 03:24:01;;;;;;;5.30;3.40;;;16.70;94.80;;;;;;5032210;28;20171;-86
2021/10/20 03:26:27;;;;;;;4.82;3.45;;;16.70;94.50;;;;;;5050269;28;20369;-86
2021/10/20 03:28:52;;;;;;;5.45;3.35;;;16.70;94.50;;;;;;5005379;28;20045;-85
2021/10/20 03:31:18;;;;;;;7.30;4.18;;;16.60;94.50;;;;;;5028515;28;20111;-85
2021/10/20 03:33:44;;;;;;;6.18;3.83;;;16.70;94.40;;;;;;5037549;28;20031;-85
2021/10/20 03:36:10;;;;;;;6.55;3.42;;;16.60;94.40;;;;;;5056120;28;20078;-85
2021/10/20 03:38:36;;;;;;;7.18;3.75;;;16.60;94.40;;;;;;5054244;28;20430;-85
2021/10/20 03:41:03;;;;;;;8.50;4.10;;;16.70;94.50;;;;;;5029137;28;20510;-86
2021/10/20 03:43:29;;;;;;;5.78;3.70;;;16.60;94.50;;;;;;5016448;28;20030;-86
2021/10/20 03:45:55;;;;;;;8.05;4.35;;;16.70;94.50;;;;;;5042442;28;20026;-86
2021/10/20 03:48:20;;;;;;;8.10;3.80;;;16.70;94.50;;;;;;5004709;28;20030;-86
2021/10/20 03:50:46;;;;;;;5.75;3.25;;;16.70;94.50;;;;;;5040521;28;20033;-85
2021/10/20 03:53:12;;;;;;;5.88;3.58;;;16.70;94.40;;;;;;5039826;28;20079;-86
2021/10/20 03:55:38;;;;;;;5.07;3.90;;;16.70;94.50;;;;;;5027335;28;20037;-85
2021/10/20 03:58:04;;;;;;;6.10;3.88;;;16.60;94.40;;;;;;5038392;28;20036;-86
2021/10/20 04:00:30;;;;;;;7.32;3.78;;;16.60;94.60;;;;;;5004932;28;20032;-86
2021/10/20 04:02:56;;;;;;;6.43;3.92;;;16.70;94.40;;;;;;5020105;28;20477;-86
2021/10/20 04:05:22;;;;;;;7.22;4.00;;;16.60;94.50;;;;;;5037856;28;20032;-85
2021/10/20 04:07:49;;;;;;;5.82;3.80;;;16.60;94.50;;;;;;5037372;28;20025;-86
2021/10/20 04:10:17;;;;;;;6.15;3.80;;;16.60;94.50;;;;;;5020475;28;20025;-86
2021/10/20 04:12:44;;;;;;;6.82;3.67;;;16.70;94.50;;;;;;5038846;28;20107;-86
2021/10/20 04:15:11;;;;;;;7.15;3.75;;;16.70;94.50;;;;;;5045968;28;20017;-86
2021/10/20 04:17:38;;;;;;;5.32;3.63;;;16.70;94.40;;;;;;5037161;28;20033;-85
2021/10/20 04:20:05;;;;;;;7.80;3.75;;;16.70;94.60;;;;;;5037525;28;20026;-86
2021/10/20 04:22:31;;;;;;;5.80;3.50;;;16.70;94.60;;;;;;5019640;28;20474;-86
2021/10/20 04:24:57;;;;;;;6.65;3.85;;;16.70;94.60;;;;;;5037052;28;20082;-85
2021/10/20 04:27:22;;;;;;;7.05;3.97;;;16.70;94.60;;;;;;5019786;28;20029;-85
2021/10/20 04:29:48;;;;;;;5.45;3.60;;;16.70;94.70;;;;;;5019795;28;20029;-86
2021/10/20 04:32:13;;;;;;;7.30;4.10;;;16.70;94.70;;;;;;5019619;28;20049;-86
2021/10/20 04:34:39;;;;;;;6.55;4.00;;;16.70;94.70;;;;;;5005764;28;20029;-85
2021/10/20 04:37:04;;;;;;;6.63;3.65;;;16.70;94.80;;;;;;5037123;28;20037;-85
2021/10/20 04:39:30;;;;;;;6.78;3.95;;;16.70;94.80;;;;;;5002955;28;20030;-85
2021/10/20 04:41:56;;;;;;;5.55;4.10;;;16.70;94.80;;;;;;5032876;28;20497;-86
2021/10/20 04:44:21;;;;;;;6.43;3.90;;;16.70;94.70;;;;;;5038957;28;20500;-85
2021/10/20 04:46:47;;;;;;;5.47;3.70;;;16.70;94.70;;;;;;5056680;28;20385;-86
2021/10/20 04:49:13;;;;;;;6.35;3.72;;;16.70;94.70;;;;;;5052841;28;20040;-85
2021/10/20 04:51:38;;;;;;;7.00;3.80;;;16.80;94.70;;;;;;5034372;28;20033;-86
2021/10/20 04:54:04;;;;;;;6.80;3.83;;;16.70;94.60;;;;;;5031094;28;20032;-86
2021/10/20 04:56:30;;;;;;;9.35;4.30;;;16.80;94.70;;;;;;5022717;28;20051;-85
2021/10/20 04:58:55;;;;;;;7.18;4.38;;;16.80;94.60;;;;;;5056946;28;20102;-86
2021/10/20 05:01:21;;;;;;;8.05;4.07;;;16.80;94.40;;;;;;5039450;28;20239;-86
2021/10/20 05:03:47;;;;;;;6.28;4.45;;;16.80;94.40;;;;;;5039766;28;20071;-86
2021/10/20 05:06:12;;;;;;;6.50;4.80;;;16.90;94.40;;;;;;5039445;28;20037;-86
2021/10/20 05:08:38;;;;;;;7.55;4.80;;;16.90;94.30;;;;;;5004516;28;20421;-86
2021/10/20 05:11:03;;;;;;;7.25;4.43;;;16.90;94.20;;;;;;5023445;28;20028;-86
2021/10/20 05:13:29;;;;;;;6.07;4.15;;;16.90;94.20;;;;;;5060807;28;20028;-85
2021/10/20 05:15:55;;;;;;;10.73;4.28;;;16.90;94.20;;;;;;5040262;28;20029;-86
2021/10/20 05:18:20;;;;;;;9.45;4.40;;;16.90;94.20;;;;;;5022926;28;20029;-86
2021/10/20 05:20:47;;;;;;;8.80;4.93;;;16.90;94.20;;;;;;5055507;28;20029;-87
2021/10/20 05:23:13;;;;;;;7.13;4.50;;;16.90;94.10;;;;;;5032163;28;20022;-87
2021/10/20 05:25:39;;;;;;;7.25;4.85;;;16.90;94.20;;;;;;5041902;28;20029;-89
2021/10/20 05:28:05;;;;;;;10.20;4.82;;;16.90;94.30;;;;;;5047383;28;20008;-87
2021/10/20 05:30:31;;;;;;;8.20;4.97;;;16.90;94.20;;;;;;5074015;28;20078;-85
2021/10/20 05:32:57;;;;;;;8.32;4.32;;;16.90;94.20;;;;;;5065613;28;20103;-88
2021/10/20 05:35:23;;;;;;;8.73;5.30;;;16.90;94.10;;;;;;5097345;28;20021;-86
2021/10/20 05:37:51;;;;;;;7.10;4.35;;;16.90;94.10;;;;;;5072588;28;20019;-86
2021/10/20 05:40:18;;;;;;;7.93;4.35;;;16.90;94.20;;;;;;5081858;28;20036;-87
2021/10/20 05:42:43;;;;;;;8.90;4.70;;;16.90;94.10;;;;;;5049502;28;20099;-87
2021/10/20 05:45:09;;;;;;;7.05;4.38;;;16.90;94.10;;;;;;5012721;28;20029;-85
2021/10/20 05:47:36;;;;;;;5.90;4.40;;;16.90;94.20;;;;;;5056504;28;20056;-86
2021/10/20 05:50:03;;;;;;;8.10;4.72;;;16.90;94.10;;;;;;5021581;28;20065;-86
2021/10/20 05:52:28;;;;;;;7.65;4.70;;;16.80;94.20;;;;;;5052551;28;20025;-86
2021/10/20 05:54:54;;;;;;;8.70;5.00;;;16.90;94.20;;;;;;5022673;28;20030;-84
2021/10/20 05:57:21;;;;;;;6.18;3.92;;;16.80;94.30;;;;;;5012429;28;20041;-85
2021/10/20 05:59:47;;;;;;;6.20;4.18;;;16.80;94.20;;;;;;5007048;28;20048;-85
2021/10/20 06:02:14;;;;;;;8.20;4.45;;;16.80;94.10;;;;;;5023779;28;20025;-87
2021/10/20 06:04:41;;;;;;;7.75;4.72;;;16.80;94.10;;;;;;5040328;28;20017;-86
2021/10/20 06:07:06;;;;;;;8.00;4.90;;;16.80;94.10;;;;;;5019803;28;20039;-86
2021/10/20 06:09:35;;;;;;;10.55;5.07;;;16.90;94.10;;;;;;5037804;28;20033;-87
2021/10/20 06:12:02;;;;;;;10.15;4.60;;;16.80;94.10;;;;;;5006713;28;20029;-86
2021/10/20 06:14:31;;;;;;;6.78;4.22;;;16.90;94.10;;;;;;5021469;28;20029;-86
2021/10/20 06:16:57;;;;;;;7.13;4.53;;;16.90;94.20;;;;;;5017400;28;20053;-86
2021/10/20 06:19:23;;;;;;;7.15;4.53;;;16.80;94.10;;;;;;5027109;28;20163;-87
2021/10/20 06:21:49;;;;;;;7.43;4.30;;;16.80;94.20;;;;;;5041852;28;20101;-86
2021/10/20 06:24:15;;;;;;;7.20;4.50;;;16.80;94.10;;;;;;5031247;28;20052;-85
2021/10/20 06:26:40;;;;;;;10.15;4.63;;;16.80;94.20;;;;;;5010861;28;20044;-86
2021/10/20 06:29:07;;;;;;;9.18;4.60;;;16.80;94.10;;;;;;5044140;28;20453;-86
2021/10/20 06:31:32;;;;;;;7.25;4.50;;;16.90;94.10;;;;;;5055214;28;20068;-86
2021/10/20 06:33:58;;;;;;;7.22;4.55;;;16.80;94.20;;;;;;5023089;28;20053;-87
2021/10/20 06:36:35;;;;;;;7.00;4.45;;;16.80;94.20;;;;;;5037067;28;20021;-86
2021/10/20 06:39:01;;;;;;;10.85;5.50;;;16.80;94.20;;;;;;5023070;28;20097;-87
2021/10/20 06:41:27;;;;;;;7.95;4.25;;;16.90;94.30;;;;;;5054701;28;20130;-86
2021/10/20 06:43:53;;;;;;;6.40;4.35;;;16.80;94.40;;;;;;5020437;28;20053;-88
2021/10/20 06:46:19;;;;;;;6.97;4.10;;;16.80;94.40;;;;;;5075197;28;20035;-89
2021/10/20 06:48:45;;;;;;;10.75;4.45;;;16.80;94.40;;;;;;5058025;28;20032;-89
2021/10/20 06:51:11;;;;;;;6.90;4.40;;;16.80;94.60;;;;;;5040942;28;20119;-86
2021/10/20 06:53:37;;;;;;;9.20;4.90;;;16.80;94.60;;;;;;5042623;28;20032;-86
2021/10/20 06:56:07;;;;;;;9.00;4.65;;;16.80;94.70;;;;;;5044693;28;20047;-87
2021/10/20 06:58:33;;;;;;;10.57;4.78;;;16.80;94.80;;;;;;5038170;28;20042;-86
2021/10/20 07:00:59;;;;;;;9.13;5.00;;;16.80;94.80;;;;;;5054674;28;20021;-86
2021/10/20 07:03:24;;;;;;;8.88;4.60;;;16.80;94.90;;;;;;5036812;28;20112;-86
2021/10/20 07:05:51;;;;;;;8.10;4.72;;;16.70;94.90;;;;;;5050022;28;20029;-85
2021/10/20 07:08:17;;;;;;;7.78;4.13;;;16.80;95.00;;;;;;5051937;28;20052;-85
2021/10/20 07:10:43;;;;;;;7.18;4.35;;;16.80;95.00;;;;;;5019948;28;20071;-86
2021/10/20 07:13:09;;;;;;;6.53;4.28;;;16.80;95.00;;;;;;5036816;28;20026;-84
2021/10/20 07:15:35;;;;;;;8.25;4.53;;;16.80;95.10;;;;;;5057051;28;20024;-85
2021/10/20 07:18:00;;;;;;;6.15;4.30;;;16.80;95.10;;;;;;5063947;28;20062;-85
2021/10/20 07:20:26;;;;;;;5.43;3.90;;;16.80;95.10;;;;;;5053679;28;20025;-86
2021/10/20 07:22:53;;;;;;;10.15;4.45;;;16.90;95.30;;;;;;5054026;28;20045;-85
2021/10/20 07:25:19;;;;;;;8.70;4.15;;;16.80;95.30;;;;;;5036236;28;20031;-86
2021/10/20 07:27:46;;;;;;;6.35;4.85;;;16.80;95.40;;;;;;5042447;28;20017;-86
2021/10/20 07:30:13;;;;;;;6.28;4.05;;;16.80;95.40;;;;;;5045665;28;20067;-85
2021/10/20 07:32:39;;;;;;;8.05;4.80;;;16.80;95.50;;;;;;5068059;28;20043;-85
2021/10/20 07:35:07;;;;;;;7.90;4.88;;;16.90;95.60;;;;;;5037169;28;20388;-86
2021/10/20 07:37:32;;;;;;;6.85;4.40;;;16.90;95.70;;;;;;5019814;28;20507;-85
2021/10/20 07:39:58;;;;;;;8.93;4.75;;;16.90;95.70;;;;;;5036851;28;20108;-85
2021/10/20 07:42:24;;;;;;;8.98;5.18;;;16.90;95.70;;;;;;5046445;28;20118;-85
2021/10/20 07:44:50;;;;;;;6.45;4.18;;;16.90;95.90;;;;;;5032623;28;20054;-86
2021/10/20 07:47:16;;;;;;;8.15;4.43;;;16.90;95.90;;;;;;5028692;28;20052;-85
2021/10/20 07:49:41;;;;;;;6.82;4.40;;;16.90;95.90;;;;;;5034477;28;20028;-86
2021/10/20 07:52:07;;;;;;;7.03;4.32;;;16.90;95.90;;;;;;5032990;28;20032;-87
2021/10/20 07:54:33;;;;;;;9.07;4.93;;;16.90;96.10;;;;;;5016470;28;20025;-85
2021/10/20 07:56:58;;;;;;;6.82;4.57;;;16.90;96.50;;;;;;5032609;28;20075;-86
2021/10/20 07:59:24;;;;;;;7.43;4.60;;;16.90;96.50;;;;;;5033146;28;20025;-86
2021/10/20 08:01:50;;;;;;;7.72;4.75;;;16.90;96.60;;;;;;5046420;28;20029;-86
2021/10/20 08:04:16;;;;;;;6.70;4.57;;;16.80;96.70;;;;;;5032639;28;20021;-86
2021/10/20 08:06:42;;;;;;;10.18;4.97;;;16.80;96.90;;;;;;5033155;28;20071;-86
2021/10/20 08:09:13;;;;;;;7.45;4.75;;;16.80;96.90;;;;;;5030794;28;20028;-93
2021/10/20 08:11:39;;;;;;;7.20;4.80;;;16.80;96.90;;;;;;5015569;28;20042;-91
2021/10/20 08:14:07;;;;;;;6.93;4.45;;;16.80;97.30;;;;;;5031271;28;20117;-93
2021/10/20 08:16:34;;;;;;;6.55;4.45;;;16.80;97.20;;;;;;5031492;28;20029;-88
2021/10/20 08:18:59;;;;;;;7.18;4.97;;;16.70;97.10;;;;;;5044758;28;20018;-88
2021/10/20 08:21:25;;;;;;;7.03;4.97;;;16.80;97.10;;;;;;5021546;28;20366;-88
2021/10/20 08:23:51;;;;;;;9.60;5.03;;;16.80;97.20;;;;;;5018764;28;20025;-87
2021/10/20 08:26:16;;;;;;;7.25;4.82;;;16.80;97.20;;;;;;5033427;28;20385;-86
2021/10/20 08:28:42;;;;;;;6.65;4.75;;;16.70;97.30;;;;;;5040863;28;20032;-87
2021/10/20 08:31:08;;;;;;;10.32;5.35;;;16.80;97.50;;;;;;5054518;28;20031;-86
2021/10/20 08:33:33;;;;;;;7.13;5.07;;;16.70;97.70;;;;;;5050788;28;20347;-87
2021/10/20 08:35:59;;;;;;;8.40;5.32;;;16.80;97.80;;;;;;5020472;28;20029;-87
2021/10/20 08:38:25;;;;;;;9.25;5.47;;;16.80;97.90;;;;;;5019884;28;20472;-88
2021/10/20 08:40:51;;;;;;;8.90;5.53;;;16.80;98.00;;;;;;5039810;28;20078;-87
2021/10/20 08:43:19;;;;;;;10.73;5.25;;;16.80;98.10;;;;;;5042088;28;20400;-88
2021/10/20 08:45:46;;;;;;;7.65;4.88;;;16.80;98.00;;;;;;5043383;28;20024;-88
2021/10/20 08:48:19;;;;;;;7.25;5.00;;;16.80;98.00;;;;;;5028844;28;20075;-89
2021/10/20 08:50:50;;;;;;;12.18;5.45;;;16.80;98.00;;;;;;5056044;28;20042;-87
2021/10/20 08:53:18;;;;;;;7.90;5.18;;;16.70;97.80;;;;;;5059270;28;20338;-87
2021/10/20 08:55:49;;;;;;;7.78;5.00;;;16.70;97.90;;;;;;5059620;28;20092;-87
2021/10/20 08:58:16;;;;;;;11.13;5.53;;;16.70;97.90;;;;;;5032155;28;20020;-88
2021/10/20 09:00:42;;;;;;;7.45;5.32;;;16.70;98.00;;;;;;5059606;28;20031;-87
2021/10/20 09:03:08;;;;;;;9.25;5.63;;;16.70;98.20;;;;;;5041066;28;20104;-88
2021/10/20 09:05:33;;;;;;;9.60;5.80;;;16.80;98.30;;;;;;5036935;28;20074;-88
2021/10/20 09:07:59;;;;;;;8.75;5.70;;;16.90;98.20;;;;;;5083314;28;20047;-88
2021/10/20 09:10:28;;;;;;;8.63;5.72;;;17.00;98.20;;;;;;5045877;28;20013;-89
2021/10/20 09:12:54;;;;;;;7.90;5.28;;;17.00;98.00;;;;;;5062481;28;20013;-89
2021/10/20 09:15:23;;;;;;;10.88;6.22;;;17.20;98.00;;;;;;5062224;28;20033;-89
2021/10/20 09:17:55;;;;;;;9.32;5.50;;;17.20;97.50;;;;;;5079446;28;20001;-88
2021/10/20 09:20:43;;;;;;;8.30;5.25;;;17.30;97.30;;;;;;5062268;28;20012;-87
2021/10/20 09:23:20;;;;;;;6.50;5.05;;;17.40;97.10;;;;;;5062543;28;20013;-89
2021/10/20 09:25:58;;;;;;;8.23;6.05;;;17.40;97.00;;;;;;5047328;28;20025;-88
2021/10/20 09:28:34;;;;;;;9.13;5.50;;;17.40;96.80;;;;;;5022078;28;20037;-87
2021/10/20 09:31:02;;;;;;;6.78;4.72;;;17.40;96.70;;;;;;5043585;28;20013;-88
2021/10/20 09:33:29;;;;;;;8.45;5.32;;;17.40;96.70;;;;;;5039934;28;20013;-88
2021/10/20 09:36:04;;;;;;;8.32;5.38;;;17.40;96.80;;;;;;5039488;28;20025;-89
2021/10/20 09:38:35;;;;;;;11.80;5.13;;;17.40;97.00;;;;;;5059915;28;20066;-86
2021/10/20 09:41:06;;;;;;;7.30;5.45;;;17.40;96.70;;;;;;5039632;28;20048;-86
2021/10/20 09:43:33;;;;;;;8.25;5.47;;;17.50;96.60;;;;;;5054573;28;20078;-86
2021/10/20 09:46:02;;;;;;;7.63;5.43;;;17.50;96.80;;;;;;5010508;28;20033;-86
2021/10/20 09:48:27;;;;;;;7.75;5.25;;;17.50;96.80;;;;;;5038326;28;20423;-87
2021/10/20 09:51:08;;;;;;;9.90;5.38;;;17.60;96.90;;;;;;5039614;28;20021;-88
2021/10/20 09:53:39;;;;;;;9.15;5.07;;;17.60;96.80;;;;;;5055229;28;20096;-85
2021/10/20 09:56:21;;;;;;;8.20;5.63;;;17.70;96.70;;;;;;5055222;28;20029;-85
2021/10/20 09:58:49;;;;;;;13.98;6.05;;;17.60;96.60;;;;;;5036026;28;20040;-85
2021/10/20 10:01:18;;;;;;;9.68;5.65;;;17.70;96.70;;;;;;5053159;28;20025;-89
2021/10/20 10:03:44;;;;;;;9.45;6.30;;;17.70;96.60;;;;;;5038465;28;20097;-87
2021/10/20 10:06:10;;;;;;;9.55;5.72;;;17.70;96.70;;;;;;5038175;28;20103;-86
2021/10/20 10:08:35;;;;;;;8.43;5.55;;;17.70;96.80;;;;;;5049695;28;20025;-87
2021/10/20 10:11:01;;;;;;;9.00;5.38;;;17.80;96.80;;;;;;5034537;28;20037;-87
2021/10/20 10:13:31;;;;;;;9.57;5.38;;;17.80;96.70;;;;;;5054266;28;20090;-85
2021/10/20 10:16:00;;;;;;;9.70;6.03;;;17.90;96.80;;;;;;5054680;28;20091;-87
2021/10/20 10:18:26;;;;;;;8.45;5.75;;;18.00;96.80;;;;;;5053835;28;20044;-87
2021/10/20 10:20:52;;;;;;;8.05;5.30;;;18.00;96.40;;;;;;5025052;28;20032;-86
2021/10/20 10:23:24;;;;;;;8.63;5.30;;;18.00;96.50;;;;;;5055078;28;20033;-86
2021/10/20 10:26:03;;;;;;;8.65;5.00;;;18.10;96.60;;;;;;5040212;28;20373;-86
2021/10/20 10:28:31;;;;;;;6.85;5.05;;;18.10;96.30;;;;;;5055198;28;20013;-88
2021/10/20 10:31:03;;;;;;;7.63;4.80;;;18.10;96.30;;;;;;5052316;28;20470;-87
2021/10/20 10:33:31;;;;;;;8.50;5.72;;;18.10;96.30;;;;;;5054938;28;20025;-87
2021/10/20 10:36:14;;;;;;;7.40;5.60;;;18.10;96.10;;;;;;5053341;28;20428;-87
2021/10/20 10:38:46;;;;;;;7.20;4.97;;;18.10;96.20;;;;;;5030270;28;20032;-86
2021/10/20 10:41:41;;;;;;;10.63;5.68;;;18.00;96.10;;;;;;5026195;28;20071;-87
2021/10/20 10:44:08;;;;;;;6.88;5.53;;;18.00;96.10;;;;;;5054027;28;20036;-86
2021/10/20 10:46:35;;;;;;;8.02;5.05;;;18.00;96.20;;;;;;5048848;28;20123;-86
2021/10/20 10:49:21;;;;;;;7.10;5.00;;;18.00;96.30;;;;;;5048431;28;20021;-85
2021/10/20 10:52:28;;;;;;;7.60;5.00;;;18.00;96.10;;;;;;5047548;28;20036;-87
2021/10/20 10:55:19;;;;;;;7.00;5.35;;;18.00;96.30;;;;;;5027143;28;20037;-87
2021/10/20 10:57:52;;;;;;;6.68;4.45;;;18.00;96.20;;;;;;5054373;28;20041;-86
2021/10/20 11:00:17;;;;;;;7.40;4.90;;;18.00;96.20;;;;;;5034679;28;20025;-87
2021/10/20 11:02:51;;;;;;;7.65;4.78;;;18.00;96.00;;;;;;5045928;28;20152;-86
2021/10/20 11:05:20;;;;;;;9.00;5.15;;;18.10;96.20;;;;;;5040216;28;20056;-87
2021/10/20 11:07:47;;;;;;;6.63;4.93;;;18.10;96.10;;;;;;5039733;28;20480;-89
2021/10/20 11:10:14;;;;;;;8.25;5.32;;;18.10;96.00;;;;;;5051257;28;20022;-87
2021/10/20 11:12:43;;;;;;;5.50;4.70;;;18.10;95.90;;;;;;5032653;28;20056;-86
2021/10/20 11:15:12;;;;;;;8.60;4.80;;;18.10;95.80;;;;;;5038827;28;20106;-87
2021/10/20 11:17:38;;;;;;;7.50;4.68;;;18.10;95.80;;;;;;5044434;28;20044;-86
2021/10/20 11:20:10;;;;;;;7.95;4.75;;;18.10;95.80;;;;;;5029316;28;20112;-87
2021/10/20 11:22:36;;;;;;;6.28;4.63;;;18.20;95.80;;;;;;5063628;28;20021;-86
2021/10/20 11:25:07;;;;;;;5.65;4.22;;;18.20;96.00;;;;;;5066310;28;20110;-86
2021/10/20 11:27:34;;;;;;;8.80;4.70;;;18.20;95.80;;;;;;5048994;28;20020;-86
2021/10/20 11:30:00;;;;;;;6.93;4.65;;;18.20;95.80;;;;;;5066855;28;20049;-87
2021/10/20 11:32:26;;;;;;;8.00;4.38;;;18.20;95.70;;;;;;5050449;28;20031;-87
2021/10/20 11:34:54;;;;;;;6.70;4.45;;;18.30;95.80;;;;;;5047608;28;20021;-87
2021/10/20 11:37:23;;;;;;;6.40;4.53;;;18.30;95.70;;;;;;5048679;28;20024;-86
2021/10/20 11:39:58;;;;;;;6.35;4.40;;;18.30;95.60;;;;;;5051765;28;20024;-88
2021/10/20 11:42:24;;;;;;;6.22;4.60;;;18.30;95.60;;;;;;5067199;28;20040;-87
2021/10/20 11:44:52;;;;;;;8.18;4.88;;;18.30;95.60;;;;;;5033186;28;20075;-88
2021/10/20 11:47:18;;;;;;;5.80;4.18;;;18.30;95.50;;;;;;5049094;28;20028;-88
2021/10/20 11:49:50;;;;;;;8.25;4.60;;;18.30;95.50;;;;;;5050934;28;20028;-87
2021/10/20 11:52:20;;;;;;;7.25;4.53;;;18.30;95.50;;;;;;5038285;28;20022;-89
2021/10/20 11:54:54;;;;;;;5.60;3.88;;;18.30;95.60;;;;;;5017562;28;20036;-89
2021/10/20 11:57:24;;;;;;;8.45;5.18;;;18.30;95.70;;;;;;5036693;28;20025;-89
2021/10/20 11:59:53;;;;;;;6.20;4.20;;;18.30;95.60;;;;;;5021886;28;20044;-89
2021/10/20 12:02:19;;;;;;;6.28;4.38;;;18.30;95.60;;;;;;5036197;28;20099;-89
2021/10/20 12:04:46;;;;;;;8.00;5.28;;;18.30;95.50;;;;;;5054907;28;20024;-89
2021/10/20 12:07:16;;;;;;;5.63;4.15;;;18.30;95.60;;;;;;5041023;28;20029;-88
2021/10/20 12:10:03;;;;;;;7.97;4.53;;;18.30;95.50;;;;;;5039908;28;20021;-87
2021/10/20 12:12:29;;;;;;;6.25;4.18;;;18.30;95.50;;;;;;5038977;28;20282;-88
2021/10/20 12:14:57;;;;;;;8.07;4.97;;;18.30;95.60;;;;;;5028355;28;20029;-87
2021/10/20 12:17:28;;;;;;;7.13;4.22;;;18.30;95.60;;;;;;5042740;28;20032;-87
2021/10/20 12:20:00;;;;;;;7.32;4.57;;;18.30;95.70;;;;;;5040742;28;20044;-87
2021/10/20 12:22:28;;;;;;;7.88;4.85;;;18.30;95.70;;;;;;5056525;28;20059;-90
2021/10/20 12:24:55;;;;;;;9.90;5.13;;;18.30;95.60;;;;;;5038618;28;20036;-89
2021/10/20 12:27:23;;;;;;;7.95;4.45;;;18.30;95.90;;;;;;5039771;28;20025;-89
2021/10/20 12:29:54;;;;;;;7.90;4.65;;;18.30;96.10;;;;;;5057574;28;20103;-89
2021/10/20 12:32:27;;;;;;;8.20;4.97;;;18.30;96.10;;;;;;5037883;28;20021;-89
2021/10/20 12:35:03;;;;;;;7.72;4.78;;;18.20;96.00;;;;;;5039952;28;20446;-89
2021/10/20 12:37:36;;;;;;;11.02;4.93;;;18.20;96.10;;;;;;5039399;28;20028;-89
2021/10/20 12:40:08;;;;;;;8.00;4.97;;;18.20;96.10;;;;;;5040190;28;20465;-88
2021/10/20 12:42:49;;;;;;;5.85;4.72;;;18.20;96.20;;;;;;5054973;28;20065;-89
2021/10/20 12:45:14;;;;;;;9.73;4.25;;;18.20;96.10;;;;;;5040072;28;20028;-89
2021/10/20 12:47:46;;;;;;;7.32;4.60;;;18.20;96.10;;;;;;5039114;28;20082;-88